Time;durP1;ratioP1;P1;durP2;ratioP2;P2;SDS_P1;SDS_P2;PMS_P1;PMS_P2;Temp;Humidity;BMP_temperature;BMP_pressure;BME280_temperature;BME280_humidity;BME280_pressure;Samples;Min_cycle;Max_cycle;Signal;HPM_P1;HPM_P2
2022/12/26 00:01:44;;;;;;;41.42;25.25;;;;;;;8.15;100.00;101012.41;4938125;29;20074;-79
2022/12/26 00:04:09;;;;;;;47.40;26.08;;;;;;;8.19;100.00;101007.97;4938067;29;20028;-78
2022/12/26 00:06:34;;;;;;;48.33;27.23;;;;;;;8.17;100.00;101000.31;4937966;29;20091;-78
2022/12/26 00:09:02;;;;;;;46.92;27.65;;;;;;;8.18;100.00;101007.13;4937988;29;20024;-77
2022/12/26 00:11:27;;;;;;;49.22;28.38;;;;;;;8.15;100.00;100991.00;4937977;29;20499;-79
2022/12/26 00:14:05;;;;;;;51.53;28.42;;;;;;;8.31;100.00;101003.03;4937997;29;20035;-77
2022/12/26 00:16:30;;;;;;;50.80;26.60;;;;;;;8.29;100.00;101002.28;4937947;29;20060;-81
2022/12/26 00:18:56;;;;;;;46.58;25.50;;;;;;;8.31;100.00;101007.34;4937836;29;20032;-78
2022/12/26 00:21:22;;;;;;;50.60;26.92;;;;;;;8.32;100.00;101021.88;4937696;29;20476;-80
2022/12/26 00:23:48;;;;;;;49.97;26.27;;;;;;;8.34;100.00;101025.19;4937664;29;20043;-78
2022/12/26 00:26:16;;;;;;;49.40;27.27;;;;;;;8.26;100.00;101009.31;4937731;29;20027;-77
2022/12/26 00:28:43;;;;;;;47.80;26.73;;;;;;;8.34;100.00;101033.75;4937743;29;20031;-79
2022/12/26 00:31:14;;;;;;;46.72;27.00;;;;;;;8.42;100.00;101045.44;4937309;29;20055;-82
2022/12/26 00:33:40;;;;;;;48.25;27.63;;;;;;;8.36;100.00;101043.16;4937491;29;20030;-77
2022/12/26 00:36:12;;;;;;;50.03;28.73;;;;;;;8.44;100.00;101061.63;4937144;29;20032;-77
2022/12/26 00:38:38;;;;;;;47.15;26.10;;;;;;;8.47;100.00;101051.19;4937285;29;20015;-81
2022/12/26 00:41:04;;;;;;;46.65;27.92;;;;;;;8.46;100.00;101046.94;4937342;29;20038;-78
2022/12/26 00:43:29;;;;;;;46.70;26.63;;;;;;;8.48;100.00;101061.41;4937504;29;20028;-78
2022/12/26 00:45:55;;;;;;;47.08;27.60;;;;;;;8.49;100.00;101047.63;4937151;29;20503;-80
2022/12/26 00:48:20;;;;;;;50.03;27.98;;;;;;;8.50;100.00;101054.44;4937376;29;20042;-82
2022/12/26 00:50:45;;;;;;;46.85;28.00;;;;;;;8.52;100.00;101054.34;4937016;29;20032;-80
2022/12/26 00:53:11;;;;;;;47.40;28.38;;;;;;;8.52;100.00;101056.91;4937063;29;20043;-78
2022/12/26 00:55:36;;;;;;;50.08;29.08;;;;;;;8.49;100.00;101044.22;4936936;29;20046;-81
2022/12/26 00:58:02;;;;;;;51.15;28.83;;;;;;;8.52;100.00;101064.63;4937131;29;20404;-78
2022/12/26 01:00:27;;;;;;;51.72;30.33;;;;;;;8.26;100.00;101024.75;4937007;29;20027;-78
2022/12/26 01:02:52;;;;;;;52.25;29.85;;;;;;;8.49;100.00;101051.94;4937077;29;20094;-78
2022/12/26 01:05:18;;;;;;;46.50;29.05;;;;;;;8.27;100.00;101029.81;4936719;29;20023;-83
2022/12/26 01:07:43;;;;;;;46.03;28.00;;;;;;;8.35;100.00;101032.03;4936859;29;20164;-83
2022/12/26 01:10:11;;;;;;;47.53;28.42;;;;;;;8.15;100.00;101027.84;4936329;29;20031;-83
2022/12/26 01:12:37;;;;;;;48.50;29.70;;;;;;;8.16;100.00;101044.09;4936993;29;20392;-83
2022/12/26 01:15:04;;;;;;;47.58;29.45;;;;;;;8.13;100.00;101051.97;4936726;29;20024;-79
2022/12/26 01:17:29;;;;;;;48.35;29.33;;;;;;;8.04;100.00;101050.69;4936681;29;20034;-83
2022/12/26 01:19:55;;;;;;;48.08;28.92;;;;;;;8.07;100.00;101047.16;4936357;29;20024;-83
2022/12/26 01:22:21;;;;;;;48.95;29.58;;;;;;;8.21;100.00;101078.16;4936490;29;20038;-83
2022/12/26 01:24:46;;;;;;;49.38;29.50;;;;;;;8.17;100.00;101067.22;4936599;29;20419;-82
2022/12/26 01:27:12;;;;;;;49.40;28.65;;;;;;;8.20;100.00;101061.06;4936680;29;20032;-82
2022/12/26 01:29:37;;;;;;;49.67;30.33;;;;;;;8.23;100.00;101061.75;4936703;29;20034;-82
2022/12/26 01:32:03;;;;;;;45.80;27.60;;;;;;;8.25;100.00;101059.91;4936368;29;20388;-82
2022/12/26 01:34:28;;;;;;;47.70;28.52;;;;;;;8.20;100.00;101059.34;4936426;29;20043;-81
2022/12/26 01:36:54;;;;;;;46.25;29.63;;;;;;;8.14;100.00;101049.34;4936220;29;20485;-82
2022/12/26 01:39:20;;;;;;;46.72;28.90;;;;;;;8.16;100.00;101060.41;4936314;29;20472;-82
2022/12/26 01:41:46;;;;;;;44.92;26.52;;;;;;;8.05;100.00;101048.03;4936212;29;20043;-83
2022/12/26 01:44:49;;;;;;;45.42;28.13;;;;;;;8.01;100.00;101071.44;4936410;29;20476;-82
2022/12/26 01:47:15;;;;;;;42.80;26.75;;;;;;;7.92;100.00;101071.88;4936131;29;20042;-81
2022/12/26 01:49:44;;;;;;;45.45;25.85;;;;;;;7.96;100.00;101079.38;4936289;29;20123;-80
2022/12/26 01:52:19;;;;;;;44.53;25.95;;;;;;;7.83;100.00;101049.16;4935875;29;20034;-81
2022/12/26 01:54:50;;;;;;;40.88;24.77;;;;;;;7.98;100.00;101071.59;4936018;29;20076;-80
2022/12/26 01:57:23;;;;;;;43.13;25.20;;;;;;;7.86;100.00;101046.44;4936130;29;20039;-80
2022/12/26 01:59:51;;;;;;;42.88;25.83;;;;;;;8.00;100.00;101068.03;4936295;29;20096;-81
2022/12/26 02:02:19;;;;;;;46.03;26.20;;;;;;;7.83;100.00;101044.03;4934394;29;20035;-81
2022/12/26 02:07:34;;;;;;;46.20;26.52;;;;;;;8.11;100.00;101075.22;4936240;29;20470;-81
2022/12/26 02:10:00;;;;;;;51.40;27.05;;;;;;;8.01;100.00;101043.97;4935897;29;20043;-81
2022/12/26 02:12:31;;;;;;;42.80;25.90;;;;;;;8.16;100.00;101077.53;4935829;29;20468;-80
2022/12/26 02:14:58;;;;;;;43.88;25.60;;;;;;;8.15;100.00;101087.00;4935851;29;20024;-76
2022/12/26 02:17:27;;;;;;;42.03;25.38;;;;;;;8.16;100.00;101080.13;4935793;29;20024;-82
2022/12/26 02:20:17;;;;;;;42.17;26.33;;;;;;;8.16;100.00;101080.97;4935855;29;20040;-82
2022/12/26 02:23:23;;;;;;;45.78;26.23;;;;;;;8.20;100.00;101071.38;4936731;29;20035;-78
2022/12/26 02:26:39;;;;;;;45.45;26.52;;;;;;;8.19;100.00;101085.13;4939965;29;20039;-80
2022/12/26 02:29:37;;;;;;;41.65;26.38;;;;;;;8.21;100.00;101081.56;4862483;29;20543;-80
2022/12/26 02:32:37;;;;;;;44.55;26.80;;;;;;;8.21;100.00;101084.16;4825613;29;20095;-85
2022/12/26 02:35:23;;;;;;;45.50;26.20;;;;;;;8.22;100.00;101066.97;4825806;29;20056;-77
2022/12/26 02:37:53;;;;;;;42.42;26.63;;;;;;;8.10;100.00;101044.44;4825300;29;20038;-81
2022/12/26 02:40:29;;;;;;;38.67;25.60;;;;;;;8.24;100.00;101067.72;4810034;29;20049;-80
2022/12/26 02:43:06;;;;;;;39.25;24.73;;;;;;;8.08;100.00;101049.66;4825488;29;20050;-80
2022/12/26 02:49:08;;;;;;;35.90;23.90;;;;;;;8.11;100.00;101056.38;4825551;29;20514;-80
2022/12/26 03:15:12;;;;;;;34.83;23.20;;;;;;;7.96;100.00;101021.94;4918321;29;20133;-80
2022/12/26 03:17:56;;;;;;;32.40;23.67;;;;;;;8.20;100.00;101072.19;4918113;29;20063;-80
2022/12/26 03:20:34;;;;;;;31.30;22.20;;;;;;;8.24;100.00;101086.56;4917846;29;20501;-80
2022/12/26 03:23:04;;;;;;;31.75;22.00;;;;;;;8.27;100.00;101093.31;4917634;29;20392;-80
2022/12/26 03:28:42;;;;;;;27.42;19.85;;;;;;;8.24;100.00;101075.44;4898824;29;20071;-79
2022/12/26 03:31:10;;;;;;;25.35;18.65;;;;;;;8.19;100.00;101069.69;4898835;29;20036;-80
2022/12/26 03:36:56;;;;;;;23.02;17.05;;;;;;;8.08;100.00;101056.53;4917734;29;20095;-77
2022/12/26 04:44:11;;;;;;;14.77;10.00;;;;;;;7.37;100.00;101100.97;4841926;29;20045;-79
2022/12/26 04:46:45;;;;;;;15.35;10.52;;;;;;;7.47;100.00;101114.22;4841388;29;20033;-80
2022/12/26 04:51:59;;;;;;;13.57;9.70;;;;;;;7.34;100.00;101083.13;4842260;29;20048;-82
2022/12/26 04:54:25;;;;;;;13.65;9.25;;;;;;;7.31;100.00;101073.00;4850237;29;20086;-81
2022/12/26 04:56:51;;;;;;;13.65;9.50;;;;;;;7.42;100.00;101090.50;4859883;29;20038;-82
2022/12/26 04:59:17;;;;;;;14.38;9.00;;;;;;;7.37;100.00;101084.72;4844593;29;20121;-80
2022/12/26 05:10:03;;;;;;;12.50;8.57;;;;;;;7.33;100.00;101103.75;4918306;29;20043;-78
2022/12/26 05:12:29;;;;;;;12.82;8.88;;;;;;;7.33;100.00;101106.31;4918151;29;20032;-78
2022/12/26 05:14:54;;;;;;;13.85;9.18;;;;;;;7.27;100.00;101094.56;4917941;29;20432;-80
2022/12/26 05:31:03;;;;;;;14.48;10.07;;;;;;;7.15;100.00;101110.53;4917923;29;20100;-82
2022/12/26 05:36:14;;;;;;;15.07;9.70;;;;;;;7.18;100.00;101111.25;4917847;29;20058;-83
2022/12/26 05:38:39;;;;;;;16.02;9.13;;;;;;;7.06;100.00;101086.09;4917456;29;20040;-83
2022/12/26 05:41:05;;;;;;;16.00;9.27;;;;;;;7.17;100.00;101098.44;4917035;29;20036;-83
2022/12/26 05:43:31;;;;;;;14.98;9.35;;;;;;;7.14;100.00;101101.16;4917447;29;20036;-82
2022/12/26 05:45:56;;;;;;;17.25;9.25;;;;;;;7.19;100.00;101086.41;4917231;29;20035;-83
2022/12/26 05:48:22;;;;;;;15.98;8.75;;;;;;;7.17;100.00;101076.16;4900052;29;20044;-82
2022/12/26 05:50:47;;;;;;;14.20;8.95;;;;;;;7.17;100.00;101076.16;4917387;29;20028;-82
2022/12/26 05:53:12;;;;;;;16.42;8.85;;;;;;;7.15;100.00;101072.00;4917248;29;20029;-82
2022/12/26 05:55:38;;;;;;;13.30;8.30;;;;;;;7.13;100.00;101073.81;4935752;29;20040;-82
2022/12/26 05:58:04;;;;;;;14.70;8.30;;;;;;;7.09;100.00;101065.44;4955193;28;20031;-82
2022/12/26 06:00:29;;;;;;;14.60;8.23;;;;;;;6.88;100.00;101041.53;4955231;29;20110;-83
2022/12/26 06:02:55;;;;;;;13.73;8.05;;;;;;;7.14;100.00;101072.91;4955308;29;20023;-80
2022/12/26 06:05:21;;;;;;;16.88;8.85;;;;;;;7.16;100.00;101071.94;4955395;29;20463;-82
2022/12/26 06:07:46;;;;;;;13.77;8.07;;;;;;;7.13;100.00;101073.81;4955270;29;20027;-83
2022/12/26 06:10:12;;;;;;;14.95;8.38;;;;;;;7.18;100.00;101079.59;4955032;29;20031;-82
2022/12/26 06:12:38;;;;;;;13.73;7.75;;;;;;;7.06;100.00;101064.72;4955004;29;20502;-83
2022/12/26 06:15:04;;;;;;;12.52;8.05;;;;;;;7.12;100.00;101085.81;4955106;29;20094;-81
2022/12/26 06:17:30;;;;;;;14.40;8.52;;;;;;;7.15;100.00;101090.81;4955125;29;20038;-82
2022/12/26 06:19:55;;;;;;;13.43;9.00;;;;;;;7.17;100.00;101099.28;4955132;29;20391;-81
2022/12/26 06:22:21;;;;;;;14.00;8.68;;;;;;;6.93;100.00;101049.03;4954818;29;20167;-81
2022/12/26 06:24:46;;;;;;;13.77;8.68;;;;;;;7.18;100.00;101100.97;4955050;28;20024;-82
2022/12/26 06:27:11;;;;;;;15.80;9.13;;;;;;;7.13;100.00;101087.50;4954695;28;20113;-82
2022/12/26 06:29:36;;;;;;;13.95;9.60;;;;;;;7.21;100.00;101097.44;4954975;29;20440;-82
2022/12/26 06:32:03;;;;;;;19.40;9.15;;;;;;;7.19;100.00;101110.34;4954974;29;20534;-82
2022/12/26 06:34:28;;;;;;;12.60;8.40;;;;;;;7.16;100.00;101095.06;4954948;29;20023;-82
2022/12/26 06:36:54;;;;;;;13.10;8.60;;;;;;;7.23;100.00;101105.91;4954989;29;20383;-81
2022/12/26 06:39:20;;;;;;;11.73;8.07;;;;;;;7.22;100.00;101109.38;4955169;28;20031;-79
2022/12/26 06:41:46;;;;;;;11.90;8.25;;;;;;;7.21;100.00;101124.84;4954507;28;20027;-81
2022/12/26 06:44:11;;;;;;;13.50;8.65;;;;;;;7.12;100.00;101108.94;4954803;28;20028;-81
2022/12/26 06:46:36;;;;;;;11.88;8.68;;;;;;;7.14;100.00;101119.13;4954879;29;20082;-82
2022/12/26 06:49:02;;;;;;;12.38;7.57;;;;;;;7.17;100.00;101119.00;4954846;29;20475;-81
2022/12/26 06:51:28;;;;;;;13.68;8.73;;;;;;;7.09;100.00;101106.50;4954916;29;20106;-82
2022/12/26 06:53:54;;;;;;;12.25;8.52;;;;;;;7.08;100.00;101106.56;4954687;29;20047;-80
2022/12/26 06:56:22;;;;;;;13.43;8.23;;;;;;;7.00;100.00;101096.66;4954623;29;20038;-81
2022/12/26 06:58:51;;;;;;;13.70;8.70;;;;;;;7.10;100.00;101097.91;4954720;28;20027;-80
2022/12/26 07:01:18;;;;;;;14.90;8.27;;;;;;;7.02;100.00;101088.88;4954910;29;20031;-84
2022/12/26 07:03:44;;;;;;;12.60;8.77;;;;;;;7.10;100.00;101115.06;4954769;29;20027;-82
2022/12/26 07:06:15;;;;;;;12.93;8.70;;;;;;;7.06;100.00;101111.75;4954722;29;20051;-82
2022/12/26 07:08:40;;;;;;;13.25;8.52;;;;;;;7.01;100.00;101092.34;4955783;28;20075;-77
2022/12/26 07:11:16;;;;;;;18.45;8.70;;;;;;;7.06;100.00;101108.38;4957964;29;20027;-80
2022/12/26 07:13:42;;;;;;;16.65;8.38;;;;;;;7.02;100.00;101109.41;4958097;28;20074;-77
2022/12/26 07:16:08;;;;;;;11.70;7.78;;;;;;;7.01;100.00;101116.28;4958227;28;20019;-82
2022/12/26 07:18:34;;;;;;;13.85;7.72;;;;;;;6.86;100.00;101094.66;4958215;29;20031;-82
2022/12/26 07:21:04;;;;;;;14.00;7.72;;;;;;;6.98;100.00;101119.00;4958272;28;20027;-81
2022/12/26 07:23:30;;;;;;;12.27;7.82;;;;;;;6.96;100.00;101109.66;4957927;29;20086;-80
2022/12/26 07:25:56;;;;;;;10.60;7.10;;;;;;;6.91;100.00;101112.44;4940589;29;20401;-80
2022/12/26 07:28:21;;;;;;;11.18;6.72;;;;;;;6.93;100.00;101113.22;4957653;29;20035;-78
2022/12/26 07:30:49;;;;;;;11.73;6.32;;;;;;;6.94;100.00;101121.75;4957911;28;20034;-80
2022/12/26 07:33:15;;;;;;;13.85;6.53;;;;;;;6.98;100.00;101129.25;4957845;29;20502;-78
2022/12/26 07:35:41;;;;;;;11.07;6.30;;;;;;;6.99;100.00;101136.06;4957752;29;20031;-81
2022/12/26 07:38:07;;;;;;;10.93;6.13;;;;;;;7.02;100.00;101138.50;4957753;29;20027;-81
2022/12/26 07:40:32;;;;;;;9.32;5.80;;;;;;;7.04;100.00;101141.81;4958041;28;20498;-79
2022/12/26 07:42:58;;;;;;;12.70;6.28;;;;;;;6.98;100.00;101142.09;4957304;29;20074;-81
2022/12/26 07:45:23;;;;;;;11.75;6.25;;;;;;;7.02;100.00;101160.75;4957745;29;20435;-82
2022/12/26 07:47:52;;;;;;;10.15;5.90;;;;;;;6.93;100.00;101143.19;4957578;29;20455;-83
2022/12/26 07:50:18;;;;;;;10.05;6.22;;;;;;;6.98;100.00;101157.50;4956479;29;20023;-81
2022/12/26 07:52:43;;;;;;;11.15;5.60;;;;;;;6.99;100.00;101155.78;4957814;29;20037;-79
2022/12/26 07:55:08;;;;;;;10.68;6.07;;;;;;;7.00;100.00;101155.69;4957284;29;20046;-81
2022/12/26 07:57:34;;;;;;;11.95;6.38;;;;;;;6.88;100.00;101131.41;4957441;29;20387;-80
2022/12/26 08:00:00;;;;;;;11.82;6.00;;;;;;;6.87;100.00;101124.56;4957388;28;20031;-78
2022/12/26 08:02:25;;;;;;;10.40;5.90;;;;;;;6.64;100.00;101098.22;4957356;29;20065;-83
2022/12/26 08:04:50;;;;;;;12.05;6.00;;;;;;;6.97;100.00;101157.53;4939814;29;20458;-83
2022/12/26 08:07:15;;;;;;;9.23;5.43;;;;;;;6.95;100.00;101165.31;4957094;28;20023;-82
2022/12/26 08:09:43;;;;;;;10.30;5.72;;;;;;;6.96;100.00;101166.97;4957128;28;20497;-82
2022/12/26 08:12:09;;;;;;;9.27;5.80;;;;;;;6.96;100.00;101164.41;4956968;28;20039;-83
2022/12/26 08:14:36;;;;;;;10.57;6.05;;;;;;;6.97;100.00;101163.50;4957049;28;20027;-88
2022/12/26 08:17:01;;;;;;;8.75;5.78;;;;;;;7.00;100.00;101160.00;4957100;29;20027;-83
2022/12/26 08:19:27;;;;;;;9.73;6.03;;;;;;;7.04;100.00;101153.81;4956756;28;20035;-84
2022/12/26 08:21:52;;;;;;;10.13;6.13;;;;;;;7.12;100.00;101150.03;4956148;28;20644;-84
2022/12/26 08:24:17;;;;;;;11.00;5.78;;;;;;;7.18;100.00;101149.78;4956962;29;20042;-84
2022/12/26 08:26:43;;;;;;;11.73;5.78;;;;;;;7.25;100.00;101152.06;4956904;28;20034;-81
2022/12/26 08:29:09;;;;;;;10.70;5.47;;;;;;;7.26;100.00;101148.59;4956447;29;20062;-82
2022/12/26 08:31:34;;;;;;;10.68;6.00;;;;;;;7.43;100.00;101162.34;4956936;29;20472;-84
2022/12/26 08:33:59;;;;;;;8.98;5.55;;;;;;;7.55;100.00;101163.53;4956596;29;20019;-81
2022/12/26 08:36:25;;;;;;;8.88;4.75;;;;;;;7.65;100.00;101159.66;4956872;28;20031;-86
2022/12/26 08:38:50;;;;;;;8.65;5.00;;;;;;;7.80;100.00;101160.69;4956652;29;20027;-82
2022/12/26 08:41:19;;;;;;;10.68;4.82;;;;;;;7.83;100.00;101149.44;4939273;29;20086;-84
2022/12/26 08:43:48;;;;;;;9.88;4.88;;;;;;;7.90;100.00;101155.97;4939166;28;20027;-82
2022/12/26 08:46:14;;;;;;;9.38;5.05;;;;;;;8.10;100.00;101173.88;4956634;28;20027;-81
2022/12/26 08:48:40;;;;;;;9.40;5.10;;;;;;;7.85;100.00;101127.88;4956498;29;20077;-85
2022/12/26 08:51:21;;;;;;;9.88;4.70;;;;;;;8.19;100.00;101178.56;4956545;29;20090;-82
2022/12/26 08:53:50;;;;;;;13.55;5.05;;;;;;;8.13;100.00;101165.16;4956238;29;20086;-84
2022/12/26 08:56:23;;;;;;;8.80;4.32;;;;;;;8.25;100.00;101177.44;4956476;29;20027;-85
2022/12/26 08:58:48;;;;;;;7.18;4.45;;;;;;;8.31;100.00;101175.41;4956301;29;20392;-84
2022/12/26 09:01:19;;;;;;;7.00;4.07;;;;;;;8.27;100.00;101161.03;4956324;29;20023;-84
2022/12/26 09:03:45;;;;;;;7.17;4.00;;;;;;;8.51;100.00;101187.34;4956190;29;20368;-84
2022/12/26 09:06:13;;;;;;;9.10;4.00;;;;;;;8.62;100.00;101194.56;4956174;29;20278;-84
2022/12/26 09:08:39;;;;;;;8.18;4.07;;;;;;;8.73;100.00;101202.56;4956190;28;20031;-84
2022/12/26 09:11:12;;;;;;;8.05;4.00;;;;;;;8.74;100.00;101199.09;4955053;28;20112;-83
2022/12/26 09:13:39;;;;;;;7.28;3.50;;;;;;;8.75;100.00;101208.50;4955924;29;20031;-76
2022/12/26 09:16:22;;;;;;;9.07;4.00;;;;;;;8.61;100.00;101186.00;4956002;28;20423;-76
2022/12/26 09:18:51;;;;;;;8.98;3.50;;;;;;;8.56;100.00;101177.69;4956099;29;20042;-83
2022/12/26 09:21:17;;;;;;;7.07;3.53;;;;;;;8.50;100.00;101184.84;4956088;29;20027;-83
2022/12/26 09:23:42;;;;;;;6.70;3.38;;;;;;;8.49;100.00;101191.75;4955713;28;20119;-74
2022/12/26 09:26:09;;;;;;;8.40;3.20;;;;;;;8.71;100.00;101216.44;4955990;29;20110;-77
2022/12/26 09:28:35;;;;;;;7.13;3.28;;;;;;;8.77;100.00;101216.97;4955521;29;20023;-77
2022/12/26 09:31:02;;;;;;;7.85;3.42;;;;;;;8.09;100.00;101100.19;4955287;28;20027;-81
2022/12/26 09:33:29;;;;;;;7.65;2.75;;;;;;;8.62;100.00;101197.13;4955581;29;20058;-78
2022/12/26 09:35:55;;;;;;;4.60;2.53;;;;;;;8.74;100.00;101198.25;4955633;28;20102;-80
2022/12/26 09:38:20;;;;;;;6.03;3.20;;;;;;;8.89;100.00;101211.22;4955577;28;20085;-77
2022/12/26 09:41:13;;;;;;;6.38;2.85;;;;;;;9.11;100.00;101235.91;4955493;28;20039;-82
2022/12/26 09:43:53;;;;;;;7.38;2.90;;;;;;;9.15;100.00;101243.41;4955760;29;20399;-83
2022/12/26 09:46:26;;;;;;;6.18;2.60;;;;;;;9.08;100.00;101247.19;4955381;28;20479;-83
2022/12/26 09:49:16;;;;;;;5.95;2.72;;;;;;;8.90;100.00;101222.34;4955259;28;20372;-82
2022/12/26 09:51:46;;;;;;;5.72;2.72;;;;;;;8.97;100.00;101256.38;4896434;29;20055;-84
2022/12/26 09:54:26;;;;;;;6.90;2.38;;;;;;;8.92;100.00;101251.44;4896091;29;20149;-82
2022/12/26 09:56:53;;;;;;;8.70;3.05;;;;;;;8.91;100.00;101254.91;4896382;29;20128;-83
2022/12/26 09:59:23;;;;;;;5.63;2.83;;;;;;;8.90;100.00;101253.25;4895874;29;20056;-83
2022/12/26 10:01:49;;;;;;;10.23;3.00;;;;;;;8.90;100.00;101261.00;4896100;29;20123;-83
2022/12/26 10:04:23;;;;;;;6.05;2.50;;;;;;;8.90;100.00;101261.00;4880216;29;20060;-80
2022/12/26 10:07:04;;;;;;;5.80;2.80;;;;;;;8.74;100.00;101236.88;4896137;29;20083;-85
2022/12/26 10:09:41;;;;;;;6.68;2.75;;;;;;;8.88;100.00;101266.22;4896133;29;20417;-86
2022/12/26 10:12:24;;;;;;;8.35;2.90;;;;;;;8.90;100.00;101271.28;4896036;29;20068;-83
2022/12/26 10:15:11;;;;;;;7.55;2.88;;;;;;;8.74;100.00;101227.41;4895995;29;20454;-83
2022/12/26 10:17:49;;;;;;;7.50;3.22;;;;;;;8.88;100.00;101255.09;4896131;29;20037;-80
2022/12/26 10:20:55;;;;;;;6.50;3.50;;;;;;;8.77;100.00;101231.59;4895976;29;20028;-85
2022/12/26 10:23:30;;;;;;;9.73;3.28;;;;;;;8.97;100.00;101277.81;4895932;29;20070;-82
2022/12/26 10:25:58;;;;;;;7.32;2.90;;;;;;;8.96;100.00;101283.88;4896024;29;20068;-82
2022/12/26 10:28:46;;;;;;;10.13;3.15;;;;;;;8.91;100.00;101340.75;4915766;29;20043;-83
2022/12/26 10:31:19;;;;;;;7.95;2.05;;;;;;;8.52;100.00;101342.63;4954720;29;20031;-81
2022/12/26 10:33:51;;;;;;;7.05;2.05;;;;;;;8.22;100.00;101353.38;4954941;28;20387;-82
2022/12/26 10:36:40;;;;;;;6.80;1.60;;;;;;;7.88;100.00;101338.59;4954949;29;20031;-84
2022/12/26 10:39:16;;;;;;;8.55;2.08;;;;;;;7.63;100.00;101307.97;4954911;29;20063;-85
2022/12/26 10:41:45;;;;;;;5.72;1.70;;;;;;;7.94;100.00;101352.91;4954721;28;20131;-83
2022/12/26 10:44:13;;;;;;;6.15;1.88;;;;;;;7.83;100.00;101317.38;4939385;29;20118;-84
2022/12/26 10:47:01;;;;;;;8.23;1.70;;;;;;;8.11;100.00;101345.31;4958608;28;20038;-83
2022/12/26 10:49:26;;;;;;;10.00;1.80;;;;;;;7.94;100.00;101333.19;4899387;29;20045;-82
2022/12/26 10:51:55;;;;;;;10.48;2.25;;;;;;;8.13;100.00;101355.50;4899254;29;20037;-81
2022/12/26 10:54:21;;;;;;;11.43;2.10;;;;;;;8.14;100.00;101370.88;4892852;29;20051;-83
2022/12/26 10:56:49;;;;;;;8.18;2.25;;;;;;;7.86;100.00;101329.25;4880749;29;20037;-83
2022/12/26 10:59:34;;;;;;;9.00;2.58;;;;;;;8.08;100.00;101375.47;4880558;29;20037;-82
2022/12/26 11:02:29;;;;;;;11.10;2.35;;;;;;;8.03;100.00;101385.94;4880475;29;20072;-82
2022/12/26 11:05:22;;;;;;;8.30;1.95;;;;;;;7.92;100.00;101375.28;4880630;29;20029;-82
2022/12/26 11:07:53;;;;;;;6.55;1.55;;;;;;;8.01;100.00;101392.91;4878237;29;20033;-83
2022/12/26 11:10:20;;;;;;;;;;;;;;;8.08;100.00;101396.06;4880792;29;20116;-83
2022/12/26 11:12:54;;;;;;;6.95;2.05;;;;;;;8.03;100.00;101399.66;4880408;29;19948;-82
2022/12/26 11:15:46;;;;;;;9.13;2.40;;;;;;;7.74;100.00;101372.59;4880186;29;20128;-81
2022/12/26 11:18:42;;;;;;;;;;;;;;;8.01;100.00;101421.19;4880635;29;20037;-82
2022/12/26 11:21:31;;;;;;;8.38;2.33;;;;;;;7.91;100.00;101420.75;4880260;29;20448;-81
2022/12/26 11:24:08;;;;;;;11.00;2.60;;;;;;;7.87;100.00;101426.09;4880158;29;20032;-82
2022/12/26 11:26:37;;;;;;;9.85;3.10;;;;;;;7.02;100.00;101289.97;4891536;29;20045;-81
2022/12/26 11:29:12;;;;;;;11.43;3.10;;;;;;;7.64;100.00;101384.16;4900791;29;20054;-81
2022/12/26 11:31:58;;;;;;;12.05;3.03;;;;;;;7.78;100.00;101391.31;4883637;29;20033;-82
2022/12/26 11:34:37;;;;;;;10.48;3.20;;;;;;;8.03;100.00;101425.38;4900840;29;20096;-80
2022/12/26 11:37:05;;;;;;;16.38;3.33;;;;;;;7.46;100.00;101336.94;4900670;29;20457;-82
2022/12/26 11:39:36;;;;;;;11.75;3.30;;;;;;;7.81;100.00;101393.75;4900475;29;20582;-82
2022/12/26 11:42:10;;;;;;;10.38;3.40;;;;;;;8.20;100.00;101429.78;4900643;29;20374;-82
2022/12/26 11:44:40;;;;;;;9.95;2.72;;;;;;;7.94;100.00;101423.19;4883660;29;20032;-83
2022/12/26 11:47:11;;;;;;;10.38;3.33;;;;;;;7.98;100.00;101450.47;4900404;29;20025;-84
2022/12/26 11:50:00;;;;;;;12.52;2.70;;;;;;;7.90;100.00;101455.09;4900346;29;20057;-82
2022/12/26 11:52:36;;;;;;;13.05;2.72;;;;;;;7.82;99.57;101461.44;4900345;29;20020;-83
2022/12/26 11:55:22;;;;;;;10.82;2.60;;;;;;;7.65;100.00;101441.56;4911825;29;20079;-82
2022/12/26 11:58:00;;;;;;;5.18;2.17;;;;;;;7.65;100.00;101446.69;4919176;29;20067;-86
2022/12/26 12:00:27;;;;;;;7.30;2.63;;;;;;;7.44;100.00;101425.28;4919270;29;20036;-86
2022/12/26 12:02:52;;;;;;;7.18;2.50;;;;;;;7.65;100.00;101473.25;4918801;29;20115;-89
2022/12/26 12:05:44;;;;;;;11.57;2.78;;;;;;;7.72;100.00;101477.25;4918906;29;20114;-84
2022/12/26 12:08:12;;;;;;;;;;;;;;;7.78;100.00;101478.75;4919453;29;20106;-85
2022/12/26 12:10:49;;;;;;;10.20;2.80;;;;;;;7.84;100.00;101493.06;4917695;29;20375;-85
2022/12/26 12:13:17;;;;;;;9.07;2.45;;;;;;;7.90;100.00;101485.09;4919084;29;20478;-88
2022/12/26 12:16:01;;;;;;;9.07;2.50;;;;;;;7.95;100.00;101485.75;4918918;29;20107;-90
2022/12/26 12:18:56;;;;;;;9.32;2.92;;;;;;;7.84;99.57;101486.19;4919075;29;20374;-87
2022/12/26 12:21:27;;;;;;;9.43;3.13;;;;;;;7.71;96.96;101485.84;4918792;29;20544;-86
2022/12/26 12:24:09;;;;;;;10.52;2.92;;;;;;;7.66;100.00;101481.78;4918848;29;20084;-75
2022/12/26 12:27:02;;;;;;;8.88;2.53;;;;;;;7.71;100.00;101483.28;4918770;29;20421;-78
2022/12/26 12:30:09;;;;;;;11.38;2.92;;;;;;;7.55;99.86;101432.56;4918676;29;20035;-87
2022/12/26 12:32:53;;;;;;;11.18;2.60;;;;;;;7.65;98.78;101456.97;4918426;29;20042;-87
2022/12/26 12:36:03;;;;;;;11.45;2.70;;;;;;;7.97;99.33;101489.09;4918846;29;20044;-79
2022/12/26 12:38:33;;;;;;;9.95;2.58;;;;;;;7.59;97.08;101440.09;4860360;29;20029;-87
2022/12/26 12:41:25;;;;;;;7.20;2.58;;;;;;;7.86;97.12;101498.97;4844649;29;20074;-84
2022/12/26 12:44:18;;;;;;;9.63;2.20;;;;;;;7.79;95.37;101506.13;4860357;29;20105;-77
2022/12/26 12:47:17;;;;;;;12.43;3.30;;;;;;;7.68;95.46;101501.41;4860245;29;20049;-79
2022/12/26 12:49:57;;;;;;;9.77;2.28;;;;;;;7.63;95.83;101505.88;4860098;29;20049;-81
2022/12/26 12:52:34;;;;;;;6.88;1.95;;;;;;;7.57;95.76;101500.13;4860177;29;20490;-81
2022/12/26 12:55:30;;;;;;;5.78;1.83;;;;;;;7.70;96.87;101515.03;4852443;29;20462;-79
2022/12/26 12:58:06;;;;;;;6.95;2.35;;;;;;;7.82;97.93;101518.00;4841598;29;20029;-83
2022/12/26 13:00:47;;;;;;;6.28;2.17;;;;;;;7.46;97.65;101475.69;4841637;29;20038;-85
2022/12/26 13:04:09;;;;;;;7.10;2.28;;;;;;;7.67;97.09;101519.44;4825659;29;20041;-84
2022/12/26 13:06:41;;;;;;;6.47;1.75;;;;;;;7.40;95.04;101508.53;4896856;23;20471;-87
2022/12/26 13:09:12;;;;;;;9.52;2.38;;;;;;;7.38;94.01;101526.59;4956090;28;20031;-85
2022/12/26 13:11:45;;;;;;;;;;;;;;;7.36;93.87;101519.81;4956536;29;20039;-85
2022/12/26 13:14:10;;;;;;;7.50;1.83;;;;;;;6.74;90.85;101477.63;4956028;29;19914;-87
2022/12/26 13:16:42;;;;;;;9.45;2.03;;;;;;;6.62;90.77;101475.50;4938995;29;20030;-87
2022/12/26 13:19:41;;;;;;;4.60;1.30;;;;;;;6.85;92.09;101534.53;4955959;29;20093;-83
2022/12/26 13:22:24;;;;;;;4.32;1.75;;;;;;;6.72;91.30;101528.19;4955768;28;20423;-85
2022/12/26 13:24:57;;;;;;;5.53;1.48;;;;;;;6.69;90.10;101538.56;4955909;28;20055;-85
2022/12/26 13:27:30;;;;;;;6.43;1.40;;;;;;;6.61;88.61;101528.56;4955726;29;20387;-85
2022/12/26 13:29:55;;;;;;;6.05;1.30;;;;;;;6.56;89.31;101529.59;4955760;28;20031;-84
2022/12/26 13:32:29;;;;;;;10.13;1.52;;;;;;;6.16;88.33;101481.41;4955967;29;20031;-85
2022/12/26 13:34:59;;;;;;;7.78;2.00;;;;;;;6.23;88.56;101511.94;4955547;29;20019;-84
2022/12/26 13:37:36;;;;;;;7.07;1.20;;;;;;;6.41;89.21;101554.06;4955766;28;20031;-83
2022/12/26 13:40:14;;;;;;;4.43;1.30;;;;;;;6.26;88.92;101528.94;4955372;29;20475;-84
2022/12/26 13:45:40;;;;;;;5.45;1.20;;;;;;;6.45;89.37;101554.78;4955890;29;20058;-83
2022/12/26 13:48:14;;;;;;;4.70;1.45;;;;;;;6.39;89.31;101561.00;4955321;29;20031;-81
2022/12/26 13:50:54;;;;;;;3.42;1.20;;;;;;;6.38;88.61;101558.44;4954299;29;20027;-81
2022/12/26 13:53:30;;;;;;;4.50;1.30;;;;;;;6.10;87.50;101543.16;4955402;29;20026;-81